createdAt,value
2019-03-18T00:01:10.073Z,8.92
2019-03-18T00:04:00.583Z,8.98
2019-03-18T00:06:50.549Z,8.91
2019-03-18T00:09:40.739Z,8.90
2019-03-18T00:12:30.554Z,8.87
2019-03-18T00:15:20.501Z,8.87
2019-03-18T00:18:10.217Z,8.84
2019-03-18T00:20:59.929Z,8.81
2019-03-18T00:23:49.803Z,8.81
2019-03-18T00:26:39.413Z,8.72
2019-03-18T00:29:29.343Z,8.67
2019-03-18T00:32:19.335Z,8.61
2019-03-18T00:35:09.413Z,8.58
2019-03-18T00:37:59.676Z,8.54
2019-03-18T00:40:49.795Z,8.46
2019-03-18T00:43:39.659Z,8.48
2019-03-18T00:46:29.833Z,8.43
2019-03-18T00:49:19.343Z,8.42
2019-03-18T00:52:10.327Z,8.34
2019-03-18T00:55:00.366Z,8.35
2019-03-18T00:57:50.322Z,8.31
2019-03-18T01:00:40.168Z,8.25
2019-03-18T01:03:29.859Z,8.22
2019-03-18T01:06:20.344Z,8.23
2019-03-18T01:09:10.202Z,8.16
2019-03-18T01:12:00.544Z,8.18
2019-03-18T01:14:50.355Z,8.17
2019-03-18T01:17:40.189Z,8.15
2019-03-18T01:20:30.066Z,8.20
2019-03-18T01:23:20.089Z,8.24
2019-03-18T01:26:10.969Z,8.19
2019-03-18T01:29:00.819Z,8.28
2019-03-18T01:31:50.605Z,8.27
2019-03-18T01:34:40.560Z,8.30
2019-03-18T01:37:30.192Z,8.31
2019-03-18T01:40:19.974Z,8.33
2019-03-18T01:43:11.029Z,8.37
2019-03-18T01:46:00.786Z,8.38
2019-03-18T01:48:50.751Z,8.43
2019-03-18T01:51:40.524Z,8.37
2019-03-18T01:54:30.502Z,8.42
2019-03-18T01:57:20.718Z,8.43
2019-03-18T02:00:10.899Z,8.37
2019-03-18T02:03:01.033Z,8.40
2019-03-18T02:05:50.668Z,8.37
2019-03-18T02:08:40.472Z,8.37
2019-03-18T02:11:30.228Z,8.32
2019-03-18T02:14:20.080Z,8.30
2019-03-18T02:17:10.078Z,8.26
2019-03-18T02:20:00.168Z,8.20
2019-03-18T02:22:50.354Z,8.12
2019-03-18T02:25:39.819Z,8.05
2019-03-18T02:28:29.551Z,8.04
2019-03-18T02:31:19.347Z,7.88
2019-03-18T02:34:09.252Z,7.82
2019-03-18T02:37:00.530Z,7.81
2019-03-18T02:39:50.201Z,7.75
2019-03-18T02:42:40.313Z,7.66
2019-03-18T02:45:30.432Z,7.53
2019-03-18T02:48:20.221Z,7.46
2019-03-18T02:51:11.451Z,7.45
2019-03-18T02:54:01.337Z,7.40
2019-03-18T02:56:51.266Z,7.38
2019-03-18T02:59:42.201Z,7.35
2019-03-18T03:02:32.095Z,7.35
2019-03-18T03:05:21.877Z,7.34
2019-03-18T03:08:12.051Z,7.29
2019-03-18T03:11:02.750Z,7.29
2019-03-18T03:13:52.726Z,7.31
2019-03-18T03:16:42.516Z,7.28
2019-03-18T03:19:32.476Z,7.28
2019-03-18T03:22:22.239Z,7.24
2019-03-18T03:25:12.189Z,7.20
2019-03-18T03:28:02.188Z,7.24
2019-03-18T03:30:52.727Z,7.37
2019-03-18T03:33:42.335Z,7.26
2019-03-18T03:36:32.213Z,7.42
2019-03-18T03:39:22.150Z,7.54
2019-03-18T03:42:11.949Z,7.54
2019-03-18T03:45:01.681Z,7.56
2019-03-18T03:47:51.447Z,7.58
2019-03-18T03:50:41.126Z,7.61
2019-03-18T03:53:31.301Z,7.64
2019-03-18T03:56:20.757Z,7.59
2019-03-18T03:59:10.401Z,7.57
2019-03-18T04:02:00.187Z,7.53
2019-03-18T04:04:50.118Z,7.51
2019-03-18T04:07:40.230Z,7.52
2019-03-18T04:10:30.009Z,7.48
2019-03-18T04:13:20.107Z,7.45
2019-03-18T04:16:10.074Z,7.44
2019-03-18T04:19:00.463Z,7.39
2019-03-18T04:21:50.902Z,7.41
2019-03-18T04:24:40.989Z,7.35
2019-03-18T04:27:31.088Z,7.29
2019-03-18T04:30:20.870Z,7.23
2019-03-18T04:33:10.646Z,7.15
2019-03-18T04:36:00.712Z,7.09
2019-03-18T04:38:50.498Z,7.12
2019-03-18T04:41:41.630Z,7.05
2019-03-18T04:44:32.660Z,6.96
2019-03-18T04:47:22.674Z,6.95
2019-03-18T04:50:12.784Z,6.98
2019-03-18T04:53:02.731Z,6.94
2019-03-18T04:55:52.642Z,6.88
2019-03-18T04:58:42.732Z,6.92
2019-03-18T05:01:32.801Z,6.87
2019-03-18T05:04:22.626Z,6.86
2019-03-18T05:07:12.517Z,6.81
2019-03-18T05:10:02.781Z,6.86
2019-03-18T05:12:52.304Z,6.85
2019-03-18T05:15:42.264Z,6.84
2019-03-18T05:18:32.344Z,6.84
2019-03-18T05:21:22.436Z,6.80
2019-03-18T05:24:12.222Z,6.78
2019-03-18T05:27:03.253Z,6.75
2019-03-18T05:29:52.786Z,6.72
2019-03-18T05:32:42.733Z,6.73
2019-03-18T05:35:32.807Z,6.73
2019-03-18T05:38:22.569Z,6.68
2019-03-18T05:41:12.275Z,6.72
2019-03-18T05:44:02.280Z,6.72
2019-03-18T05:46:52.098Z,6.68
2019-03-18T05:49:42.250Z,6.70
2019-03-18T05:52:32.297Z,6.70
2019-03-18T05:55:22.655Z,6.69
2019-03-18T05:58:12.820Z,6.67
2019-03-18T06:01:02.524Z,6.71
2019-03-18T06:03:52.544Z,6.88
2019-03-18T06:06:42.408Z,7.05
2019-03-18T06:09:32.001Z,7.29
2019-03-18T06:12:21.864Z,7.38
2019-03-18T06:15:12.061Z,7.52
2019-03-18T06:18:02.188Z,7.66
2019-03-18T06:20:52.837Z,7.85
2019-03-18T06:23:43.028Z,8.03
2019-03-18T06:26:32.729Z,8.32
2019-03-18T06:29:22.512Z,8.47
2019-03-18T06:32:12.567Z,8.67
2019-03-18T06:35:02.411Z,8.87
2019-03-18T06:37:52.573Z,9.11
2019-03-18T06:40:43.023Z,9.39
2019-03-18T06:43:33.050Z,9.77
2019-03-18T06:46:23.226Z,10.17
2019-03-18T06:49:12.859Z,10.63
2019-03-18T06:52:02.509Z,11.24
2019-03-18T06:54:52.537Z,12.00
2019-03-18T06:57:46.436Z,12.61
2019-03-18T07:00:36.477Z,13.16
2019-03-18T07:03:26.523Z,12.97
2019-03-18T07:06:16.659Z,12.82
2019-03-18T07:09:08.172Z,12.80
2019-03-18T07:11:57.970Z,12.92
2019-03-18T07:14:48.147Z,12.93
2019-03-18T07:17:41.404Z,13.06
2019-03-18T07:20:31.019Z,12.92
2019-03-18T07:23:20.705Z,13.09
2019-03-18T07:26:10.326Z,13.44
2019-03-18T07:29:00.078Z,13.82
2019-03-18T07:31:49.656Z,13.91
2019-03-18T07:34:40.000Z,13.41
2019-03-18T07:37:30.046Z,12.86
2019-03-18T07:40:20.068Z,12.19
2019-03-18T07:43:10.398Z,11.85
2019-03-18T07:46:00.381Z,11.57
2019-03-18T07:48:50.830Z,11.35
2019-03-18T07:51:40.615Z,11.26
2019-03-18T07:54:32.953Z,11.03
2019-03-18T07:57:22.545Z,11.21
2019-03-18T08:00:12.583Z,11.33
2019-03-18T08:03:03.595Z,11.23
2019-03-18T08:05:53.283Z,11.11
2019-03-18T08:08:43.802Z,11.02
2019-03-18T08:11:33.900Z,11.01
2019-03-18T08:14:23.856Z,11.09
2019-03-18T08:17:13.335Z,11.12
2019-03-18T08:20:03.770Z,11.07
2019-03-18T08:22:53.898Z,10.99
2019-03-18T08:25:43.993Z,11.00
2019-03-18T08:28:34.285Z,10.89
2019-03-18T08:31:24.791Z,10.84
2019-03-18T08:34:14.532Z,10.66
2019-03-18T08:37:04.677Z,10.54
2019-03-18T08:39:55.713Z,10.56
2019-03-18T08:42:45.480Z,10.36
2019-03-18T08:45:35.521Z,10.33
2019-03-18T08:48:25.079Z,10.25
2019-03-18T08:51:15.310Z,10.15
2019-03-18T08:54:05.218Z,10.09
2019-03-18T08:56:55.237Z,10.01
2019-03-18T08:59:45.319Z,9.97
2019-03-18T09:02:35.177Z,10.06
2019-03-18T09:05:25.404Z,9.97
2019-03-18T09:08:15.425Z,10.01
2019-03-18T09:11:05.191Z,10.01
2019-03-18T09:13:55.104Z,10.09
2019-03-18T09:16:45.078Z,9.97
2019-03-18T09:19:34.785Z,10.03
2019-03-18T09:22:24.783Z,10.01
2019-03-18T09:25:14.982Z,10.02
2019-03-18T09:28:05.676Z,10.03
2019-03-18T09:30:55.490Z,10.03
2019-03-18T09:33:45.517Z,10.10
2019-03-18T09:36:35.487Z,10.20
2019-03-18T09:39:25.180Z,10.32
2019-03-18T09:42:17.913Z,10.37
2019-03-18T09:45:07.969Z,10.38
2019-03-18T09:47:57.818Z,10.47
2019-03-18T09:50:47.557Z,10.61
2019-03-18T09:53:37.802Z,10.74
2019-03-18T09:56:27.720Z,10.79
2019-03-18T09:59:17.403Z,10.69
2019-03-18T10:02:07.880Z,10.78
2019-03-18T10:04:57.922Z,10.77
2019-03-18T10:07:48.297Z,10.85
2019-03-18T10:10:37.847Z,10.84
2019-03-18T10:13:27.943Z,10.90
2019-03-18T10:16:18.224Z,11.02
2019-03-18T10:19:08.329Z,11.57
2019-03-18T10:21:58.443Z,12.09
2019-03-18T10:24:47.901Z,12.23
2019-03-18T10:27:37.903Z,12.21
2019-03-18T10:30:27.940Z,12.16
2019-03-18T10:33:17.911Z,12.11
2019-03-18T10:36:07.840Z,12.06
2019-03-18T10:38:57.597Z,12.08
2019-03-18T10:41:47.440Z,12.24
2019-03-18T10:44:37.271Z,12.39
2019-03-18T10:47:27.322Z,12.46
2019-03-18T10:50:17.071Z,12.66
2019-03-18T10:53:07.283Z,13.67
2019-03-18T10:56:07.141Z,15.28
2019-03-18T10:58:50.202Z,16.84
2019-03-18T11:01:40.097Z,18.37
2019-03-18T11:04:30.178Z,18.79
2019-03-18T11:07:20.000Z,18.75
2019-03-18T11:10:12.597Z,18.51
2019-03-18T11:13:02.732Z,17.76
2019-03-18T11:15:52.648Z,17.36
2019-03-18T11:18:42.650Z,16.91
2019-03-18T11:21:32.762Z,16.58
2019-03-18T11:24:23.588Z,17.30
2019-03-18T11:27:14.730Z,18.28
2019-03-18T11:30:06.072Z,18.69
2019-03-18T11:32:55.885Z,18.30
2019-03-18T11:35:45.690Z,17.71
2019-03-18T11:38:36.637Z,17.78
2019-03-18T11:41:26.496Z,18.27
2019-03-18T11:44:16.653Z,18.80
2019-03-18T11:47:06.628Z,19.73
2019-03-18T11:49:56.131Z,20.33
2019-03-18T11:52:45.835Z,21.07
2019-03-18T11:55:35.690Z,21.41
2019-03-18T11:58:26.750Z,21.95
2019-03-18T12:01:16.327Z,21.73
2019-03-18T12:04:06.558Z,20.60
2019-03-18T12:06:56.548Z,19.91
2019-03-18T12:09:46.593Z,19.41
2019-03-18T12:12:36.912Z,18.58
2019-03-18T12:15:26.877Z,17.92
2019-03-18T12:18:16.889Z,17.57
2019-03-18T12:21:06.780Z,17.09
2019-03-18T12:23:56.822Z,16.71
2019-03-18T12:26:49.260Z,16.18
2019-03-18T12:29:38.925Z,16.10
2019-03-18T12:32:28.840Z,15.90
2019-03-18T12:35:18.542Z,15.83
2019-03-18T12:38:08.404Z,15.50
2019-03-18T12:40:58.498Z,15.59
2019-03-18T12:43:48.547Z,15.97
2019-03-18T12:46:38.230Z,16.46
2019-03-18T12:49:28.051Z,16.65
2019-03-18T12:52:18.183Z,16.90
2019-03-18T12:55:08.105Z,16.95
2019-03-18T12:57:58.036Z,16.88
2019-03-18T13:00:47.938Z,16.89
2019-03-18T13:03:37.957Z,17.08
2019-03-18T13:06:27.570Z,17.09
2019-03-18T13:09:17.392Z,17.31
2019-03-18T13:12:07.528Z,17.99
2019-03-18T13:14:57.663Z,18.22
2019-03-18T13:17:47.601Z,18.58
2019-03-18T13:20:37.715Z,18.70
2019-03-18T13:23:27.521Z,18.61
2019-03-18T13:26:17.068Z,18.47
2019-03-18T13:29:06.951Z,18.21
2019-03-18T13:31:56.894Z,17.77
2019-03-18T13:34:47.716Z,17.21
2019-03-18T13:37:37.560Z,16.87
2019-03-18T13:40:27.521Z,16.46
2019-03-18T13:43:17.675Z,16.28
2019-03-18T13:46:07.516Z,16.16
2019-03-18T13:48:57.191Z,16.01
2019-03-18T13:51:47.279Z,15.93
2019-03-18T13:54:37.547Z,15.90
2019-03-18T13:57:27.535Z,15.72
2019-03-18T14:00:17.905Z,15.56
2019-03-18T14:03:07.279Z,15.37
2019-03-18T14:05:57.410Z,15.37
2019-03-18T14:08:47.454Z,15.27
2019-03-18T14:11:37.228Z,15.33
2019-03-18T14:14:26.860Z,15.27
2019-03-18T14:17:16.874Z,15.08
2019-03-18T14:20:08.365Z,14.84
2019-03-18T14:22:58.597Z,14.69
2019-03-18T14:25:48.119Z,14.59
2019-03-18T14:28:37.897Z,14.41
2019-03-18T14:31:28.054Z,14.24
2019-03-18T14:34:20.414Z,13.96
2019-03-18T14:37:10.695Z,13.98
2019-03-18T14:40:00.414Z,14.03
2019-03-18T14:42:49.797Z,13.91
2019-03-18T14:45:39.724Z,14.00
2019-03-18T14:48:29.060Z,13.93
2019-03-18T14:51:18.206Z,13.90
2019-03-18T14:54:09.813Z,13.82
2019-03-18T14:56:59.868Z,13.76
2019-03-18T14:59:50.057Z,13.58
2019-03-18T15:02:40.568Z,13.49
2019-03-18T15:05:30.271Z,13.39
2019-03-18T15:08:19.884Z,13.24
2019-03-18T15:11:10.418Z,13.12
2019-03-18T15:14:00.526Z,13.07
2019-03-18T15:16:50.212Z,13.03
2019-03-18T15:19:39.724Z,13.01
2019-03-18T15:22:30.138Z,12.99
2019-03-18T15:25:21.498Z,12.84
2019-03-18T15:28:11.095Z,12.82
2019-03-18T15:31:00.849Z,12.78
2019-03-18T15:33:52.171Z,12.76
2019-03-18T15:36:42.425Z,12.67
2019-03-18T15:39:32.463Z,12.64
2019-03-18T15:42:22.371Z,12.63
2019-03-18T15:45:13.580Z,12.53
2019-03-18T15:48:03.651Z,12.55
2019-03-18T15:50:53.584Z,12.42
2019-03-18T15:53:43.523Z,12.35
2019-03-18T15:56:32.776Z,12.46
2019-03-18T15:59:22.516Z,12.47
2019-03-18T16:02:12.160Z,12.50
2019-03-18T16:05:02.148Z,12.46
2019-03-18T16:07:52.092Z,12.44
2019-03-18T16:10:41.669Z,12.42
2019-03-18T16:13:31.712Z,12.30
2019-03-18T16:16:23.565Z,12.28
2019-03-18T16:19:13.595Z,12.23
2019-03-18T16:22:03.083Z,12.18
2019-03-18T16:24:52.769Z,12.19
2019-03-18T16:27:42.732Z,12.15
2019-03-18T16:30:32.966Z,12.14
2019-03-18T16:33:23.345Z,12.18
2019-03-18T16:36:13.364Z,12.20
2019-03-18T16:39:03.076Z,12.23
2019-03-18T16:41:54.482Z,12.30
2019-03-18T16:44:44.522Z,12.26
2019-03-18T16:47:34.247Z,12.28
2019-03-18T16:50:24.075Z,12.21
2019-03-18T16:53:13.872Z,12.15
2019-03-18T16:56:03.761Z,12.06
2019-03-18T16:58:53.705Z,12.07
2019-03-18T17:01:43.804Z,12.02
2019-03-18T17:04:33.646Z,12.04
2019-03-18T17:07:23.400Z,12.01
2019-03-18T17:10:14.369Z,11.99
2019-03-18T17:13:04.479Z,11.91
2019-03-18T17:15:54.174Z,11.77
2019-03-18T17:18:45.063Z,11.72
2019-03-18T17:21:35.259Z,11.64
2019-03-18T17:24:25.726Z,11.58
2019-03-18T17:27:15.582Z,11.56
2019-03-18T17:30:08.966Z,11.53
2019-03-18T17:32:59.774Z,11.53
2019-03-18T17:35:49.715Z,11.52
2019-03-18T17:38:39.844Z,11.48
2019-03-18T17:41:29.404Z,11.46
2019-03-18T17:44:19.318Z,11.39
2019-03-18T17:47:09.154Z,11.39
2019-03-18T17:49:59.322Z,11.34
2019-03-18T17:53:01.692Z,11.33
2019-03-18T17:55:41.045Z,11.28
2019-03-18T17:58:31.275Z,11.24
2019-03-18T18:01:21.487Z,11.21
2019-03-18T18:04:11.731Z,11.21
2019-03-18T18:07:01.801Z,11.19
2019-03-18T18:09:51.290Z,11.08
2019-03-18T18:12:41.396Z,11.06
2019-03-18T18:15:31.430Z,10.93
2019-03-18T18:18:21.596Z,10.89
2019-03-18T18:21:10.973Z,10.88
2019-03-18T18:24:00.801Z,10.88
2019-03-18T18:26:51.320Z,10.89
2019-03-18T18:29:40.482Z,10.81
2019-03-18T18:32:29.792Z,10.74
2019-03-18T18:35:20.045Z,10.69
2019-03-18T18:38:10.547Z,10.68
2019-03-18T18:41:00.111Z,10.59
2019-03-18T18:43:49.524Z,10.54
2019-03-18T18:46:39.698Z,10.45
2019-03-18T18:49:29.682Z,10.40
2019-03-18T18:52:19.751Z,10.31
2019-03-18T18:55:10.420Z,10.31
2019-03-18T18:58:00.315Z,10.26
2019-03-18T19:00:50.203Z,10.24
2019-03-18T19:03:40.012Z,10.17
2019-03-18T19:06:30.005Z,10.04
2019-03-18T19:09:19.770Z,10.02
2019-03-18T19:12:10.068Z,7.39
2019-03-18T19:15:00.087Z,9.96
2019-03-18T19:17:51.860Z,9.91
2019-03-18T19:20:42.836Z,9.89
2019-03-18T19:23:37.454Z,9.88
2019-03-18T19:26:24.092Z,9.89
2019-03-18T19:29:14.117Z,9.85
2019-03-18T19:32:04.801Z,9.84
2019-03-18T19:34:54.663Z,9.80
2019-03-18T19:37:44.916Z,9.79
2019-03-18T19:40:34.808Z,9.80
2019-03-18T19:43:24.761Z,9.74
2019-03-18T19:46:15.038Z,9.74
2019-03-18T19:49:04.823Z,9.70
2019-03-18T19:51:54.151Z,9.75
2019-03-18T19:54:43.621Z,9.75
2019-03-18T19:57:33.575Z,9.69
2019-03-18T20:00:23.635Z,9.68
2019-03-18T20:03:13.674Z,9.60
2019-03-18T20:06:03.662Z,9.57
2019-03-18T20:08:53.517Z,9.57
2019-03-18T20:11:42.790Z,9.55
2019-03-18T20:14:32.759Z,9.53
2019-03-18T20:17:22.647Z,9.50
2019-03-18T20:20:13.999Z,9.52
2019-03-18T20:23:04.169Z,9.42
2019-03-18T20:25:54.219Z,9.41
2019-03-18T20:28:44.120Z,9.35
2019-03-18T20:31:34.167Z,9.32
2019-03-18T20:34:25.529Z,9.27
2019-03-18T20:37:15.651Z,9.23
2019-03-18T20:40:06.481Z,9.18
2019-03-18T20:42:56.367Z,9.15
2019-03-18T20:45:45.537Z,9.07
2019-03-18T20:48:34.801Z,9.02
2019-03-18T20:51:24.426Z,8.97
2019-03-18T20:54:14.694Z,8.90
2019-03-18T20:57:04.281Z,8.88
2019-03-18T20:59:54.174Z,8.75
2019-03-18T21:02:44.471Z,8.72
2019-03-18T21:05:35.373Z,8.69
2019-03-18T21:08:24.942Z,8.64
2019-03-18T21:11:13.967Z,8.58
2019-03-18T21:14:04.408Z,8.51
2019-03-18T21:16:54.475Z,8.47
2019-03-18T21:19:44.367Z,8.42
2019-03-18T21:22:34.876Z,8.35
2019-03-18T21:25:24.914Z,8.32
2019-03-18T21:28:15.146Z,8.22
2019-03-18T21:31:05.381Z,8.22
2019-03-18T21:33:55.064Z,8.19
2019-03-18T21:36:45.280Z,8.18
2019-03-18T21:39:35.586Z,8.22
2019-03-18T21:42:25.386Z,8.23
2019-03-18T21:45:16.871Z,8.19
2019-03-18T21:48:06.957Z,8.18
2019-03-18T21:50:56.276Z,8.14
2019-03-18T21:53:45.699Z,8.15
2019-03-18T21:56:35.550Z,8.12
2019-03-18T21:59:24.760Z,8.14
2019-03-18T22:02:14.113Z,8.14
2019-03-18T22:05:04.200Z,8.15
2019-03-18T22:07:54.431Z,8.10
2019-03-18T22:10:44.435Z,8.12
2019-03-18T22:13:34.091Z,8.06
2019-03-18T22:16:23.754Z,8.10
2019-03-18T22:19:15.772Z,8.09
2019-03-18T22:22:05.024Z,8.04
2019-03-18T22:24:54.791Z,8.03
2019-03-18T22:27:45.230Z,8.00
2019-03-18T22:30:35.509Z,8.00
2019-03-18T22:33:25.266Z,7.95
2019-03-18T22:36:15.408Z,7.91
2019-03-18T22:39:07.944Z,7.87
2019-03-18T22:41:57.701Z,7.83
2019-03-18T22:44:47.278Z,7.81
2019-03-18T22:47:37.465Z,7.77
2019-03-18T22:50:27.245Z,7.70
2019-03-18T22:53:17.543Z,7.63
2019-03-18T22:56:07.126Z,7.60
2019-03-18T22:58:56.382Z,7.59
2019-03-18T23:01:46.165Z,7.55
2019-03-18T23:04:35.841Z,7.53
2019-03-18T23:07:26.389Z,7.50
2019-03-18T23:10:16.270Z,7.48
2019-03-18T23:13:06.197Z,7.44
2019-03-18T23:15:56.211Z,7.44
2019-03-18T23:18:46.139Z,7.37
2019-03-18T23:21:36.214Z,7.37
2019-03-18T23:24:26.050Z,7.40
2019-03-18T23:27:15.539Z,7.39
2019-03-18T23:30:05.689Z,7.38
2019-03-18T23:32:55.219Z,7.37
2019-03-18T23:35:45.099Z,7.34
2019-03-18T23:38:35.074Z,7.34
2019-03-18T23:41:24.974Z,7.32
2019-03-18T23:44:14.249Z,7.28
2019-03-18T23:47:03.989Z,7.27
2019-03-18T23:49:53.408Z,7.23
2019-03-18T23:52:43.565Z,7.19
2019-03-18T23:55:33.583Z,7.14
2019-03-18T23:58:23.495Z,7.11
